createdAt,value
2023-02-18T00:01:39.672Z,13.17
2023-02-18T00:04:08.724Z,12.47
2023-02-18T00:06:37.687Z,13.57
2023-02-18T00:09:06.788Z,23.13
2023-02-18T00:11:36.559Z,14.07
2023-02-18T00:14:05.886Z,14.67
2023-02-18T00:16:33.438Z,10.47
2023-02-18T00:19:11.889Z,13.97
2023-02-18T00:21:40.488Z,13.77
2023-02-18T00:24:09.149Z,15.07
2023-02-18T00:26:37.450Z,11.93
2023-02-18T00:29:07.235Z,11.90
2023-02-18T00:31:37.017Z,14.63
2023-02-18T00:34:06.043Z,22.70
2023-02-18T00:36:34.945Z,12.60
2023-02-18T00:39:05.064Z,17.83
2023-02-18T00:41:33.085Z,14.67
2023-02-18T00:44:02.070Z,14.50
2023-02-18T00:46:30.052Z,12.97
2023-02-18T00:48:57.798Z,12.57
2023-02-18T00:51:27.846Z,13.67
2023-02-18T00:53:56.775Z,15.00
2023-02-18T00:56:24.322Z,15.13
2023-02-18T00:58:52.953Z,11.97
2023-02-18T01:01:21.241Z,12.03
2023-02-18T01:03:48.776Z,12.00
2023-02-18T01:06:16.265Z,18.37
2023-02-18T01:08:44.070Z,8.83
2023-02-18T01:11:14.161Z,12.37
2023-02-18T01:13:42.306Z,21.00
2023-02-18T01:16:11.005Z,19.33
2023-02-18T01:18:39.872Z,15.87
2023-02-18T01:21:08.810Z,14.57
2023-02-18T01:23:36.506Z,9.33
2023-02-18T01:26:16.078Z,10.23
2023-02-18T01:28:48.204Z,13.83
2023-02-18T01:31:18.238Z,14.77
2023-02-18T01:33:45.797Z,12.00
2023-02-18T01:36:13.686Z,13.50
2023-02-18T01:38:43.133Z,13.27
2023-02-18T01:41:11.325Z,12.10
2023-02-18T01:43:39.252Z,14.97
2023-02-18T01:46:14.894Z,13.90
2023-02-18T01:48:45.288Z,15.53
2023-02-18T01:51:18.879Z,11.90
2023-02-18T01:53:53.489Z,14.93
2023-02-18T01:56:26.626Z,14.90
2023-02-18T01:58:56.514Z,11.27
2023-02-18T02:01:27.664Z,25.33
2023-02-18T02:03:55.722Z,11.33
2023-02-18T02:06:25.001Z,9.47
2023-02-18T02:08:57.811Z,19.37
2023-02-18T02:11:40.437Z,11.83
2023-02-18T02:14:23.795Z,14.37
2023-02-18T02:16:58.691Z,16.43
2023-02-18T02:19:55.750Z,16.23
2023-02-18T02:23:03.925Z,30.03
2023-02-18T02:25:51.290Z,14.07
2023-02-18T02:28:42.712Z,14.20
2023-02-18T02:31:39.666Z,11.93
2023-02-18T02:34:34.497Z,16.37
2023-02-18T02:37:09.296Z,10.70
2023-02-18T02:39:45.480Z,14.53
2023-02-18T02:42:26.271Z,14.00
2023-02-18T02:44:57.120Z,11.50
2023-02-18T02:47:33.967Z,10.27
2023-02-18T02:50:07.313Z,10.80
2023-02-18T02:52:38.898Z,9.67
2023-02-18T02:55:10.033Z,10.17
2023-02-18T02:57:50.073Z,12.77
2023-02-18T03:00:20.953Z,14.13
2023-02-18T03:03:18.553Z,14.00
2023-02-18T03:06:02.553Z,7.97
2023-02-18T03:08:41.114Z,8.93
2023-02-18T03:11:11.575Z,14.97
2023-02-18T03:13:54.692Z,7.60
2023-02-18T03:16:28.792Z,14.97
2023-02-18T03:19:04.345Z,15.07
2023-02-18T03:21:38.163Z,10.40
2023-02-18T03:24:14.328Z,9.57
2023-02-18T03:26:47.967Z,11.50
2023-02-18T03:29:18.199Z,10.20
2023-02-18T03:31:50.193Z,10.93
2023-02-18T03:34:24.826Z,9.33
2023-02-18T03:36:54.419Z,12.00
2023-02-18T03:39:25.761Z,14.80
2023-02-18T03:41:53.286Z,12.07
2023-02-18T03:44:20.737Z,11.73
2023-02-18T03:46:48.312Z,8.70
2023-02-18T03:49:17.242Z,8.10
2023-02-18T03:51:44.885Z,12.10
2023-02-18T03:54:14.625Z,9.17
2023-02-18T03:56:42.694Z,8.10
2023-02-18T03:59:10.463Z,10.77
2023-02-18T04:01:37.997Z,10.27
2023-02-18T04:04:05.922Z,11.03
2023-02-18T04:06:33.632Z,7.70
2023-02-18T04:09:02.519Z,6.87
2023-02-18T04:11:31.273Z,9.27
2023-02-18T04:13:58.715Z,10.90
2023-02-18T04:16:26.160Z,6.20
2023-02-18T04:18:53.751Z,8.87
2023-02-18T04:21:21.160Z,8.27
2023-02-18T04:23:48.663Z,7.70
2023-02-18T04:26:16.181Z,6.47
2023-02-18T04:28:44.960Z,8.87
2023-02-18T04:31:12.619Z,7.93
2023-02-18T04:33:40.158Z,12.00
2023-02-18T04:36:08.667Z,11.73
2023-02-18T04:38:36.325Z,8.37
2023-02-18T04:41:03.815Z,8.80
2023-02-18T04:43:31.294Z,7.67
2023-02-18T04:46:00.097Z,6.37
2023-02-18T04:48:27.640Z,6.90
2023-02-18T04:50:55.032Z,8.90
2023-02-18T04:53:22.587Z,5.53
2023-02-18T04:55:51.588Z,6.17
2023-02-18T04:58:19.192Z,8.07
2023-02-18T05:00:47.126Z,8.60
2023-02-18T05:03:16.001Z,5.03
2023-02-18T05:05:43.720Z,8.70
2023-02-18T05:08:11.128Z,7.00
2023-02-18T05:10:38.699Z,7.77
2023-02-18T05:13:06.159Z,9.30
2023-02-18T05:15:33.861Z,10.00
2023-02-18T05:18:01.303Z,6.90
2023-02-18T05:20:30.490Z,8.27
2023-02-18T05:22:58.112Z,8.53
2023-02-18T05:25:25.587Z,6.47
2023-02-18T05:27:52.981Z,7.47
2023-02-18T05:30:20.584Z,7.07
2023-02-18T05:32:48.091Z,7.63
2023-02-18T05:35:15.543Z,9.03
2023-02-18T05:37:44.265Z,7.90
2023-02-18T05:40:12.926Z,8.20
2023-02-18T05:42:40.356Z,8.50
2023-02-18T05:45:08.607Z,6.77
2023-02-18T05:47:36.033Z,6.80
2023-02-18T05:50:04.093Z,8.73
2023-02-18T05:52:31.512Z,7.50
2023-02-18T05:55:00.276Z,5.80
2023-02-18T05:57:27.721Z,8.17
2023-02-18T05:59:55.197Z,6.37
2023-02-18T06:02:22.683Z,10.03
2023-02-18T06:04:50.393Z,6.97
2023-02-18T06:07:18.334Z,5.60
2023-02-18T06:09:45.769Z,5.90
2023-02-18T06:12:14.520Z,8.40
2023-02-18T06:14:42.897Z,5.13
2023-02-18T06:17:10.772Z,7.97
2023-02-18T06:19:38.235Z,11.47
2023-02-18T06:22:06.182Z,6.30
2023-02-18T06:24:33.914Z,7.60
2023-02-18T06:27:01.703Z,3.03
2023-02-18T06:29:31.329Z,5.20
2023-02-18T06:31:59.233Z,4.43
2023-02-18T06:34:27.893Z,7.47
2023-02-18T06:36:55.367Z,5.07
2023-02-18T06:39:22.812Z,4.90
2023-02-18T06:41:50.280Z,6.93
2023-02-18T06:44:17.714Z,5.47
2023-02-18T06:46:46.554Z,4.63
2023-02-18T06:49:14.032Z,8.47
2023-02-18T06:51:41.457Z,5.50
2023-02-18T06:54:08.996Z,7.97
2023-02-18T06:56:36.430Z,6.17
2023-02-18T06:59:03.882Z,9.50
2023-02-18T07:01:31.322Z,7.87
2023-02-18T07:04:00.157Z,4.77
2023-02-18T07:06:27.643Z,6.43
2023-02-18T07:08:55.071Z,6.63
2023-02-18T07:11:22.620Z,5.93
2023-02-18T07:13:50.072Z,5.40
2023-02-18T07:16:17.580Z,5.00
2023-02-18T07:18:45.064Z,4.70
2023-02-18T07:21:13.872Z,5.67
2023-02-18T07:23:41.379Z,4.80
2023-02-18T07:26:11.023Z,5.97
2023-02-18T07:28:38.988Z,5.63
2023-02-18T07:31:06.806Z,4.03
2023-02-18T07:33:34.705Z,5.23
2023-02-18T07:36:03.261Z,3.90
2023-02-18T07:38:32.112Z,4.43
2023-02-18T07:41:00.636Z,5.23
2023-02-18T07:43:28.041Z,7.97
2023-02-18T07:45:55.761Z,6.00
2023-02-18T07:48:23.216Z,6.47
2023-02-18T07:50:50.734Z,10.07
2023-02-18T07:53:18.481Z,7.67
2023-02-18T07:55:53.049Z,5.63
2023-02-18T07:58:22.344Z,5.13
2023-02-18T08:00:50.376Z,4.50
2023-02-18T08:03:19.170Z,5.67
2023-02-18T08:05:46.714Z,3.73
2023-02-18T08:08:15.933Z,4.40
2023-02-18T08:10:44.329Z,7.80
2023-02-18T08:13:13.579Z,4.87
2023-02-18T08:15:41.566Z,4.53
2023-02-18T08:18:14.843Z,4.50
2023-02-18T08:20:42.311Z,7.10
2023-02-18T08:23:11.713Z,5.27
2023-02-18T08:25:39.186Z,6.70
2023-02-18T08:28:06.876Z,5.73
2023-02-18T08:30:35.835Z,6.20
2023-02-18T08:33:03.551Z,10.27
2023-02-18T08:35:31.212Z,5.40
2023-02-18T08:37:58.763Z,8.00
2023-02-18T08:40:26.194Z,4.47
2023-02-18T08:42:53.639Z,4.63
2023-02-18T08:45:21.101Z,3.80
2023-02-18T08:48:16.025Z,7.40
2023-02-18T08:50:37.295Z,4.73
2023-02-18T08:53:05.587Z,7.23
2023-02-18T08:55:34.763Z,6.13
2023-02-18T08:58:02.394Z,4.87
2023-02-18T09:00:29.833Z,5.70
2023-02-18T09:02:58.626Z,3.97
2023-02-18T09:05:26.220Z,3.80
2023-02-18T09:07:53.646Z,4.70
2023-02-18T09:10:21.324Z,6.60
2023-02-18T09:12:48.881Z,8.40
2023-02-18T09:15:16.630Z,6.13
2023-02-18T09:17:44.388Z,9.07
2023-02-18T09:20:14.488Z,8.23
2023-02-18T09:22:42.069Z,9.70
2023-02-18T09:25:09.921Z,6.43
2023-02-18T09:27:38.010Z,8.37
2023-02-18T09:30:08.032Z,6.70
2023-02-18T09:32:35.815Z,8.50
2023-02-18T09:35:03.739Z,7.07
2023-02-18T09:37:32.677Z,7.67
2023-02-18T09:40:00.827Z,11.07
2023-02-18T09:42:33.405Z,8.80
2023-02-18T09:45:04.102Z,7.40
2023-02-18T09:47:35.901Z,8.00
2023-02-18T09:50:07.907Z,8.17
2023-02-18T09:52:39.296Z,10.47
2023-02-18T09:55:22.724Z,10.47
2023-02-18T09:57:51.991Z,10.63
2023-02-18T10:00:24.014Z,24.67
2023-02-18T10:02:57.899Z,30.13
2023-02-18T10:05:27.510Z,8.07
2023-02-18T10:08:01.309Z,19.40
2023-02-18T10:10:37.499Z,15.73
2023-02-18T10:13:05.497Z,10.57
2023-02-18T10:15:34.036Z,11.07
2023-02-18T10:18:02.905Z,12.70
2023-02-18T10:20:33.323Z,15.93
2023-02-18T10:23:06.058Z,10.47
2023-02-18T10:25:40.640Z,7.70
2023-02-18T10:28:09.344Z,7.03
2023-02-18T10:30:41.393Z,8.67
2023-02-18T10:33:23.357Z,12.33
2023-02-18T10:35:55.054Z,9.57
2023-02-18T10:38:34.680Z,6.33
2023-02-18T10:41:14.103Z,7.47
2023-02-18T10:43:53.926Z,7.57
2023-02-18T10:46:30.072Z,8.20
2023-02-18T10:49:10.634Z,11.50
2023-02-18T10:51:45.763Z,11.40
2023-02-18T10:54:16.145Z,9.13
2023-02-18T10:56:48.616Z,8.90
2023-02-18T10:59:21.488Z,4.93
2023-02-18T11:01:57.334Z,8.03
2023-02-18T11:04:29.147Z,7.87
2023-02-18T11:06:56.705Z,8.07
2023-02-18T11:09:42.035Z,7.33
2023-02-18T11:12:16.571Z,6.23
2023-02-18T11:14:46.297Z,6.77
2023-02-18T11:17:19.838Z,4.63
2023-02-18T11:19:54.805Z,5.10
2023-02-18T11:22:24.969Z,6.47
2023-02-18T11:24:57.859Z,3.50
2023-02-18T11:27:31.878Z,5.63
2023-02-18T11:30:03.735Z,4.40
2023-02-18T11:32:34.948Z,4.87
2023-02-18T11:35:03.586Z,5.67
2023-02-18T11:37:33.990Z,7.03
2023-02-18T11:40:02.932Z,5.90
2023-02-18T11:42:30.684Z,4.03
2023-02-18T11:45:00.669Z,5.20
2023-02-18T11:47:31.961Z,4.07
2023-02-18T11:50:19.356Z,3.13
2023-02-18T11:52:48.808Z,3.07
2023-02-18T11:55:20.282Z,3.03
2023-02-18T11:57:53.111Z,4.77
2023-02-18T12:00:31.160Z,4.10
2023-02-18T12:03:01.526Z,3.47
2023-02-18T12:05:30.029Z,4.23
2023-02-18T12:08:03.449Z,2.50
2023-02-18T12:10:35.902Z,3.17
2023-02-18T12:13:07.930Z,2.87
2023-02-18T12:15:47.303Z,3.50
2023-02-18T12:18:28.444Z,4.30
2023-02-18T12:21:08.468Z,4.17
2023-02-18T12:23:44.568Z,2.83
2023-02-18T12:26:24.032Z,3.53
2023-02-18T12:29:05.777Z,3.37
2023-02-18T12:31:47.377Z,4.20
2023-02-18T12:34:31.490Z,3.40
2023-02-18T12:37:12.258Z,3.80
2023-02-18T12:40:00.210Z,3.50
2023-02-18T12:42:41.712Z,4.63
2023-02-18T12:45:32.244Z,4.63
2023-02-18T12:48:16.562Z,4.23
2023-02-18T12:50:56.567Z,4.20
2023-02-18T12:53:43.999Z,3.87
2023-02-18T12:56:44.135Z,5.40
2023-02-18T12:59:35.873Z,4.40
2023-02-18T13:02:19.227Z,3.80
2023-02-18T13:04:55.386Z,3.80
2023-02-18T13:07:50.680Z,4.57
2023-02-18T13:10:37.996Z,3.30
2023-02-18T13:13:12.179Z,4.10
2023-02-18T13:15:44.126Z,3.37
2023-02-18T13:18:16.564Z,2.93
2023-02-18T13:20:47.411Z,3.57
2023-02-18T13:23:20.268Z,3.10
2023-02-18T13:25:50.600Z,3.37
2023-02-18T13:28:26.302Z,3.27
2023-02-18T13:31:06.332Z,3.30
2023-02-18T13:33:41.904Z,4.37
2023-02-18T13:36:18.668Z,4.20
2023-02-18T13:39:03.240Z,2.60
2023-02-18T13:41:36.830Z,2.97
2023-02-18T13:44:09.115Z,2.23
2023-02-18T13:46:50.620Z,3.87
2023-02-18T13:49:23.284Z,2.27
2023-02-18T13:51:52.738Z,1.40
2023-02-18T13:54:24.942Z,1.30
2023-02-18T13:56:55.405Z,1.33
2023-02-18T13:59:27.748Z,2.00
2023-02-18T14:01:56.543Z,1.67
2023-02-18T14:04:36.708Z,1.60
2023-02-18T14:07:45.216Z,1.57
2023-02-18T14:10:28.616Z,3.93
2023-02-18T14:13:23.820Z,1.93
2023-02-18T14:15:54.864Z,1.43
2023-02-18T14:18:57.088Z,1.80
2023-02-18T14:21:43.621Z,1.37
2023-02-18T14:24:13.238Z,2.67
2023-02-18T14:26:46.050Z,1.50
2023-02-18T14:29:19.239Z,1.87
2023-02-18T14:31:50.746Z,1.50
2023-02-18T14:34:53.448Z,1.30
2023-02-18T14:37:56.782Z,1.57
2023-02-18T14:40:36.593Z,1.40
2023-02-18T14:43:12.204Z,1.80
2023-02-18T14:46:05.503Z,2.53
2023-02-18T14:48:53.365Z,2.43
2023-02-18T14:51:25.061Z,1.47
2023-02-18T14:53:53.230Z,1.50
2023-02-18T14:56:22.609Z,1.57
2023-02-18T14:58:53.304Z,2.40
2023-02-18T15:01:23.532Z,1.37
2023-02-18T15:03:52.519Z,1.90
2023-02-18T15:06:26.318Z,2.40
2023-02-18T15:08:53.752Z,2.93
2023-02-18T15:11:23.485Z,1.43
2023-02-18T15:13:51.455Z,1.70
2023-02-18T15:16:21.593Z,1.30
2023-02-18T15:18:53.849Z,1.57
2023-02-18T15:21:25.663Z,1.10
2023-02-18T15:23:54.926Z,1.30
2023-02-18T15:26:22.620Z,1.30
2023-02-18T15:29:01.376Z,1.27
2023-02-18T15:31:31.502Z,1.73
2023-02-18T15:33:59.140Z,2.30
2023-02-18T15:36:27.777Z,1.30
2023-02-18T15:38:57.525Z,2.67
2023-02-18T15:41:25.353Z,1.70
2023-02-18T15:43:54.741Z,0.93
2023-02-18T15:46:26.191Z,0.80
2023-02-18T15:48:55.328Z,0.90
2023-02-18T15:51:26.724Z,1.60
2023-02-18T15:53:58.698Z,0.93
2023-02-18T15:56:32.052Z,0.97
2023-02-18T15:59:10.596Z,0.70
2023-02-18T16:01:38.330Z,1.33
2023-02-18T16:04:07.356Z,1.00
2023-02-18T16:06:39.396Z,0.73
2023-02-18T16:09:16.959Z,0.70
2023-02-18T16:11:46.644Z,0.97
2023-02-18T16:14:27.736Z,1.37
2023-02-18T16:17:07.423Z,0.50
2023-02-18T16:19:35.483Z,1.60
2023-02-18T16:22:18.576Z,1.07
2023-02-18T16:24:55.525Z,0.63
2023-02-18T16:27:23.100Z,1.47
2023-02-18T16:29:52.118Z,1.33
2023-02-18T16:32:19.768Z,1.10
2023-02-18T16:34:48.768Z,2.63
2023-02-18T16:37:34.127Z,1.17
2023-02-18T16:40:05.639Z,1.07
2023-02-18T16:42:33.201Z,1.57
2023-02-18T16:45:01.769Z,1.17
2023-02-18T16:47:29.225Z,1.20
2023-02-18T16:49:58.733Z,1.13
2023-02-18T16:52:26.200Z,1.17
2023-02-18T16:54:55.213Z,1.20
2023-02-18T16:57:24.021Z,1.07
2023-02-18T16:59:51.479Z,1.00
2023-02-18T17:02:21.910Z,1.20
2023-02-18T17:04:49.371Z,1.47
2023-02-18T17:07:17.040Z,1.27
2023-02-18T17:09:44.493Z,1.13
2023-02-18T17:12:13.320Z,0.80
2023-02-18T17:14:42.078Z,1.08
2023-02-18T17:17:13.824Z,1.47
2023-02-18T17:19:41.315Z,1.00
2023-02-18T17:22:08.806Z,0.90
2023-02-18T17:24:36.285Z,1.17
2023-02-18T17:27:03.802Z,0.97
2023-02-18T17:29:31.244Z,0.70
2023-02-18T17:32:00.233Z,0.97
2023-02-18T17:34:31.100Z,1.93
2023-02-18T17:36:58.584Z,1.50
2023-02-18T17:39:26.063Z,1.20
2023-02-18T17:41:53.483Z,1.73
2023-02-18T17:44:23.547Z,1.67
2023-02-18T17:46:52.437Z,1.33
2023-02-18T17:49:22.326Z,3.23
2023-02-18T17:51:50.203Z,4.03
2023-02-18T17:54:19.381Z,3.10
2023-02-18T17:56:47.746Z,1.00
2023-02-18T17:59:15.399Z,1.33
2023-02-18T18:01:43.754Z,1.27
2023-02-18T18:04:14.474Z,1.30
2023-02-18T18:06:43.988Z,1.20
2023-02-18T18:09:11.439Z,1.20
2023-02-18T18:11:39.421Z,0.90
2023-02-18T18:14:06.913Z,0.90
2023-02-18T18:16:35.084Z,1.77
2023-02-18T18:19:02.524Z,1.23
2023-02-18T18:21:32.456Z,1.37
2023-02-18T18:24:01.520Z,2.30
2023-02-18T18:26:29.142Z,2.10
2023-02-18T18:28:56.693Z,1.70
2023-02-18T18:31:24.395Z,2.30
2023-02-18T18:33:53.851Z,1.00
2023-02-18T18:36:24.027Z,1.03
2023-02-18T18:38:51.739Z,2.70
2023-02-18T18:41:23.018Z,1.20
2023-02-18T18:43:50.845Z,1.60
2023-02-18T18:46:18.536Z,1.73
2023-02-18T18:48:46.242Z,1.37
2023-02-18T18:51:16.863Z,1.20
2023-02-18T18:53:44.534Z,1.70
2023-02-18T18:56:13.186Z,1.90
2023-02-18T18:58:42.066Z,1.17
2023-02-18T19:01:15.139Z,0.87
2023-02-18T19:03:43.497Z,2.47
2023-02-18T19:06:11.034Z,1.23
2023-02-18T19:08:38.613Z,1.57
2023-02-18T19:11:06.742Z,1.33
2023-02-18T19:13:35.893Z,1.50
2023-02-18T19:16:13.288Z,1.10
2023-02-18T19:18:40.810Z,1.20
2023-02-18T19:21:08.519Z,1.20
2023-02-18T19:23:36.465Z,1.10
2023-02-18T19:26:04.044Z,1.90
2023-02-18T19:28:31.685Z,1.20
2023-02-18T19:30:59.304Z,1.10
2023-02-18T19:33:28.210Z,1.20
2023-02-18T19:35:55.678Z,1.27
2023-02-18T19:38:23.159Z,1.63
2023-02-18T19:40:50.665Z,1.97
2023-02-18T19:43:18.079Z,2.00
2023-02-18T19:45:47.904Z,2.13
2023-02-18T19:48:16.525Z,1.77
2023-02-18T19:50:45.502Z,3.07
2023-02-18T19:53:13.136Z,3.33
2023-02-18T19:55:40.702Z,2.30
2023-02-18T19:58:08.202Z,2.40
2023-02-18T20:00:35.927Z,2.47
2023-02-18T20:03:03.537Z,3.10
2023-02-18T20:05:31.159Z,2.60
2023-02-18T20:07:59.895Z,2.73
2023-02-18T20:10:27.891Z,2.73
2023-02-18T20:12:55.584Z,2.43
2023-02-18T20:15:23.812Z,2.43
2023-02-18T20:17:51.364Z,2.60
2023-02-18T20:20:20.109Z,2.53
2023-02-18T20:22:47.575Z,2.30
2023-02-18T20:25:16.431Z,2.03
2023-02-18T20:27:59.548Z,3.73
2023-02-18T20:30:28.136Z,3.40
2023-02-18T20:32:55.677Z,2.90
2023-02-18T20:35:23.081Z,3.17
2023-02-18T20:37:50.576Z,2.90
2023-02-18T20:40:19.536Z,3.00
2023-02-18T20:42:47.008Z,3.33
2023-02-18T20:45:14.461Z,3.47
2023-02-18T20:47:41.972Z,3.73
2023-02-18T20:50:09.535Z,3.50
2023-02-18T20:52:36.961Z,3.50
2023-02-18T20:55:04.864Z,3.60
2023-02-18T20:57:33.607Z,3.70
2023-02-18T21:00:01.069Z,4.03
2023-02-18T21:02:28.597Z,4.77
2023-02-18T21:04:56.009Z,4.27
2023-02-18T21:07:23.468Z,5.03
2023-02-18T21:09:50.882Z,5.23
2023-02-18T21:12:18.378Z,4.53
2023-02-18T21:14:47.310Z,4.87
2023-02-18T21:17:14.972Z,5.03
2023-02-18T21:19:42.778Z,4.47
2023-02-18T21:22:10.198Z,4.03
2023-02-18T21:24:37.776Z,4.70
2023-02-18T21:27:05.295Z,4.53
2023-02-18T21:29:32.706Z,4.33
2023-02-18T21:32:01.851Z,4.60
2023-02-18T21:34:29.388Z,4.83
2023-02-18T21:36:56.847Z,4.20
2023-02-18T21:39:24.297Z,3.70
2023-02-18T21:41:51.735Z,4.43
2023-02-18T21:44:21.518Z,3.37
2023-02-18T21:46:50.609Z,4.47
2023-02-18T21:49:19.355Z,3.93
2023-02-18T21:51:57.364Z,3.20
2023-02-18T21:54:26.876Z,4.03
2023-02-18T21:56:55.565Z,2.97
2023-02-18T21:59:26.683Z,2.80
2023-02-18T22:01:54.775Z,2.90
2023-02-18T22:04:24.009Z,3.00
2023-02-18T22:06:51.432Z,3.63
2023-02-18T22:09:19.670Z,2.43
2023-02-18T22:11:47.143Z,2.63
2023-02-18T22:14:15.934Z,3.00
2023-02-18T22:16:43.963Z,2.77
2023-02-18T22:19:12.035Z,2.87
2023-02-18T22:21:41.282Z,3.10
2023-02-18T22:24:10.935Z,2.37
2023-02-18T22:26:38.541Z,2.00
2023-02-18T22:29:06.557Z,2.20
2023-02-18T22:31:34.522Z,2.33
2023-02-18T22:34:02.128Z,2.40
2023-02-18T22:36:30.385Z,4.43
2023-02-18T22:39:01.337Z,2.13
2023-02-18T22:41:31.041Z,3.43
2023-02-18T22:44:00.874Z,3.33
2023-02-18T22:46:29.584Z,3.13
2023-02-18T22:48:58.623Z,2.50
2023-02-18T22:51:27.768Z,2.87
2023-02-18T22:53:57.311Z,2.70
2023-02-18T22:56:28.045Z,2.80
2023-02-18T22:58:56.712Z,5.33
2023-02-18T23:01:26.155Z,7.70
2023-02-18T23:03:54.379Z,2.87
2023-02-18T23:06:24.949Z,6.20
2023-02-18T23:08:54.429Z,5.10
2023-02-18T23:11:22.341Z,9.00
2023-02-18T23:14:05.437Z,3.00
2023-02-18T23:16:53.439Z,4.23
2023-02-18T23:19:20.941Z,5.83
2023-02-18T23:21:48.531Z,16.10
2023-02-18T23:24:16.322Z,8.23
2023-02-18T23:26:46.179Z,3.33
2023-02-18T23:29:15.219Z,4.27
2023-02-18T23:31:42.917Z,2.97
2023-02-18T23:34:14.079Z,3.23
2023-02-18T23:36:42.880Z,3.17
2023-02-18T23:39:12.623Z,4.13
2023-02-18T23:41:40.095Z,3.40
2023-02-18T23:44:10.664Z,7.07
2023-02-18T23:46:40.249Z,7.17
2023-02-18T23:49:07.813Z,15.53
2023-02-18T23:51:35.359Z,3.23
2023-02-18T23:54:03.810Z,3.77
2023-02-18T23:56:31.985Z,2.80
2023-02-18T23:59:01.464Z,4.23
